createdAt,value
2023-01-04T00:02:31.219Z,100925.25
2023-01-04T00:07:29.470Z,100915.19
2023-01-04T00:12:25.859Z,100902.97
2023-01-04T00:17:22.224Z,100893.59
2023-01-04T00:22:18.510Z,100895.47
2023-01-04T00:27:14.802Z,100880.72
2023-01-04T00:32:11.127Z,100874.25
2023-01-04T00:37:07.708Z,100868.47
2023-01-04T00:42:06.709Z,100852.06
2023-01-04T00:47:04.638Z,100849.72
2023-01-04T00:52:01.060Z,100832.84
2023-01-04T00:56:58.080Z,100822.00
2023-01-04T01:01:54.580Z,100809.63
2023-01-04T01:06:52.161Z,100814.47
2023-01-04T01:11:48.784Z,100800.84
2023-01-04T01:16:55.788Z,100797.41
2023-01-04T01:21:53.489Z,100779.56
2023-01-04T01:26:50.144Z,100772.31
2023-01-04T01:31:46.698Z,100757.91
2023-01-04T01:36:43.191Z,100751.16
2023-01-04T01:41:39.506Z,100755.00
2023-01-04T01:46:42.104Z,100756.53
2023-01-04T01:51:38.904Z,100749.16
2023-01-04T01:56:38.368Z,100749.69
2023-01-04T02:01:34.769Z,100723.22
2023-01-04T02:06:35.449Z,100725.56
2023-01-04T02:11:33.206Z,100712.84
2023-01-04T02:16:56.917Z,100697.91
2023-01-04T02:22:17.699Z,100692.69
2023-01-04T02:27:39.875Z,100670.97
2023-01-04T02:33:01.081Z,100665.28
2023-01-04T02:38:19.460Z,100652.41
2023-01-04T02:43:45.941Z,100636.19
2023-01-04T02:49:01.063Z,100616.34
2023-01-04T02:54:02.590Z,100606.22
2023-01-04T02:59:14.295Z,100592.03
2023-01-04T03:05:08.524Z,100582.31
2023-01-04T03:10:15.668Z,100570.59
2023-01-04T03:15:17.917Z,100557.19
2023-01-04T03:20:16.536Z,100558.03
2023-01-04T03:25:32.210Z,100550.22
2023-01-04T03:30:49.458Z,100543.22
2023-01-04T03:35:59.630Z,100525.44
2023-01-04T03:41:19.140Z,100513.06
2023-01-04T03:46:38.072Z,100503.00
2023-01-04T03:51:37.703Z,100506.28
2023-01-04T03:56:37.840Z,100486.53
2023-01-04T04:01:35.008Z,100482.53
2023-01-04T04:06:50.172Z,100469.81
2023-01-04T04:11:46.596Z,100462.75
2023-01-04T04:16:42.959Z,100467.38
2023-01-04T04:21:39.381Z,100464.34
2023-01-04T04:26:35.725Z,100443.50
2023-01-04T04:31:32.156Z,100437.63
2023-01-04T04:36:28.611Z,100420.16
2023-01-04T04:41:41.354Z,100416.34
2023-01-04T04:46:37.986Z,100409.50
2023-01-04T04:51:34.920Z,100375.19
2023-01-04T04:56:31.592Z,100360.47
2023-01-04T05:01:28.185Z,100365.97
2023-01-04T05:06:24.759Z,100364.16
2023-01-04T05:11:41.060Z,100360.66
2023-01-04T05:16:37.548Z,100366.50
2023-01-04T05:21:33.999Z,100363.00
2023-01-04T05:26:30.331Z,100367.97
2023-01-04T05:31:26.792Z,100344.13
2023-01-04T05:36:23.160Z,100333.75
2023-01-04T05:41:38.061Z,100346.16
2023-01-04T05:46:34.435Z,100327.47
2023-01-04T05:51:30.749Z,100325.03
2023-01-04T05:56:27.255Z,100320.91
2023-01-04T06:01:23.601Z,100321.63
2023-01-04T06:06:19.970Z,100306.78
2023-01-04T06:11:16.337Z,100306.84
2023-01-04T06:16:12.695Z,100311.59
2023-01-04T06:21:09.097Z,100289.91
2023-01-04T06:26:05.427Z,100300.66
2023-01-04T06:31:06.273Z,100286.25
2023-01-04T06:36:03.299Z,100284.53
2023-01-04T06:40:59.946Z,100282.16
2023-01-04T06:45:56.622Z,100283.88
2023-01-04T06:50:53.091Z,100270.94
2023-01-04T06:55:49.529Z,100275.91
2023-01-04T07:00:47.144Z,100263.13
2023-01-04T07:05:44.360Z,100266.53
2023-01-04T07:10:41.389Z,100249.63
2023-01-04T07:15:40.846Z,100235.41
2023-01-04T07:20:38.706Z,100251.94
2023-01-04T07:25:35.414Z,100234.72
2023-01-04T07:30:31.873Z,100229.41
2023-01-04T07:35:28.364Z,100231.84
2023-01-04T07:40:25.026Z,100248.09
2023-01-04T07:45:21.420Z,100254.25
2023-01-04T07:50:17.875Z,100258.09
2023-01-04T07:55:14.296Z,100250.03
2023-01-04T08:00:11.459Z,100241.84
2023-01-04T08:05:08.273Z,100250.66
2023-01-04T08:10:05.105Z,100241.22
2023-01-04T08:15:01.591Z,100254.50
2023-01-04T08:19:58.123Z,100242.19
2023-01-04T08:24:54.477Z,100268.28
2023-01-04T08:29:50.889Z,100247.66
2023-01-04T08:34:47.235Z,100230.88
2023-01-04T08:39:48.695Z,100230.66
2023-01-04T08:44:45.766Z,100223.81
2023-01-04T08:49:42.096Z,100217.41
2023-01-04T08:54:38.579Z,100205.59
2023-01-04T08:59:35.050Z,100207.78
2023-01-04T09:04:31.681Z,100188.13
2023-01-04T09:09:30.043Z,100201.06
2023-01-04T09:14:26.521Z,100197.81
2023-01-04T09:19:23.013Z,100175.81
2023-01-04T09:24:19.529Z,100162.19
2023-01-04T09:29:16.264Z,100163.63
2023-01-04T09:34:15.362Z,100164.13
2023-01-04T09:39:21.452Z,100161.47
2023-01-04T09:44:54.578Z,100154.47
2023-01-04T09:49:51.939Z,100155.19
2023-01-04T09:54:57.624Z,100160.75
2023-01-04T10:00:03.941Z,100152.16
2023-01-04T10:05:03.665Z,100159.06
2023-01-04T10:10:00.848Z,100169.88
2023-01-04T10:15:30.816Z,100164.81
2023-01-04T10:21:20.795Z,100159.75
2023-01-04T10:26:15.511Z,100146.59
2023-01-04T10:31:38.971Z,100143.81
2023-01-04T10:36:37.828Z,100150.22
2023-01-04T10:41:43.725Z,100133.69
2023-01-04T10:46:46.463Z,100138.75
2023-01-04T10:51:56.356Z,100130.78
2023-01-04T10:57:19.099Z,100136.72
2023-01-04T11:02:23.058Z,100144.94
2023-01-04T11:07:25.987Z,100145.28
2023-01-04T11:12:24.033Z,100141.66
2023-01-04T11:17:23.275Z,100152.03
2023-01-04T11:22:25.952Z,100139.47
2023-01-04T11:27:27.174Z,100137.31
2023-01-04T11:32:42.144Z,100140.72
2023-01-04T11:37:40.444Z,100132.59
2023-01-04T11:42:36.771Z,100136.81
2023-01-04T11:47:33.724Z,100120.41
2023-01-04T11:52:36.228Z,100142.88
2023-01-04T11:57:32.701Z,100138.41
2023-01-04T12:02:59.407Z,100125.72
2023-01-04T12:07:45.490Z,100129.94
2023-01-04T12:12:42.207Z,100116.31
2023-01-04T12:17:43.508Z,100124.16
2023-01-04T12:22:40.884Z,100117.75
2023-01-04T12:27:37.766Z,100109.53
2023-01-04T12:32:34.081Z,100123.03
2023-01-04T12:37:46.085Z,100103.47
2023-01-04T12:43:14.597Z,100097.88
2023-01-04T12:48:48.059Z,100103.81
2023-01-04T12:53:55.679Z,100092.09
2023-01-04T13:04:41.137Z,100078.50
2023-01-04T13:09:46.551Z,100079.94
2023-01-04T13:14:50.802Z,100054.41
2023-01-04T13:19:48.210Z,100042.03
2023-01-04T13:24:45.529Z,100057.47
2023-01-04T13:29:42.510Z,100041.00
2023-01-04T13:34:55.731Z,100046.91
2023-01-04T13:40:01.791Z,100041.38
2023-01-04T13:45:27.673Z,100020.53
2023-01-04T13:50:47.296Z,99993.78
2023-01-04T13:55:43.841Z,99990.00
2023-01-04T14:00:52.315Z,99997.16
2023-01-04T14:05:52.077Z,100001.97
2023-01-04T14:10:49.007Z,99994.94
2023-01-04T14:15:45.667Z,100003.00
2023-01-04T14:20:42.059Z,99986.94
2023-01-04T14:25:43.466Z,99985.72
2023-01-04T14:30:39.890Z,99962.66
2023-01-04T14:35:39.892Z,99963.22
2023-01-04T14:40:41.222Z,99945.31
2023-01-04T14:45:37.730Z,99941.97
2023-01-04T14:50:34.069Z,99947.00
2023-01-04T14:55:31.130Z,99923.31
2023-01-04T15:00:27.487Z,99931.31
2023-01-04T15:05:24.175Z,99932.28
2023-01-04T15:10:28.143Z,99928.78
2023-01-04T15:15:24.560Z,99913.06
2023-01-04T15:20:20.924Z,99903.97
2023-01-04T15:25:17.670Z,99910.28
2023-01-04T15:30:14.962Z,99905.38
2023-01-04T15:35:15.912Z,99880.56
2023-01-04T15:40:15.086Z,99891.22
2023-01-04T15:45:11.463Z,99900.63
2023-01-04T15:50:08.894Z,99891.22
2023-01-04T15:55:05.728Z,99894.03
2023-01-04T16:00:03.403Z,99878.31
2023-01-04T16:04:59.915Z,99893.72
2023-01-04T16:09:56.362Z,99885.75
2023-01-04T16:14:53.437Z,99897.41
2023-01-04T16:19:49.918Z,99891.63
2023-01-04T16:30:03.915Z,99872.72
2023-01-04T16:35:00.362Z,99884.78
2023-01-04T16:40:06.174Z,99880.41
2023-01-04T16:45:03.130Z,99880.41
2023-01-04T16:49:59.485Z,99887.56
2023-01-04T16:54:55.901Z,99887.44
2023-01-04T16:59:52.301Z,99862.22
2023-01-04T17:04:55.055Z,99872.84
2023-01-04T17:09:51.429Z,99879.16
2023-01-04T17:15:00.755Z,99883.09
2023-01-04T17:20:06.285Z,99896.69
2023-01-04T17:25:03.864Z,99893.75
2023-01-04T17:30:00.247Z,99881.69
2023-01-04T17:34:58.059Z,99874.69
2023-01-04T17:39:54.731Z,99867.66
2023-01-04T17:44:52.799Z,99861.91
2023-01-04T17:49:49.150Z,99861.34
2023-01-04T17:54:45.511Z,99863.16
2023-01-04T17:59:41.864Z,99864.28
2023-01-04T18:04:38.216Z,99863.47
2023-01-04T18:09:34.579Z,99871.31
2023-01-04T18:14:30.950Z,99848.88
2023-01-04T18:19:29.884Z,99860.34
2023-01-04T18:24:42.572Z,99857.56
2023-01-04T18:29:39.095Z,99866.25
2023-01-04T18:34:35.968Z,99843.94
2023-01-04T18:39:32.387Z,99831.75
2023-01-04T18:44:34.008Z,99844.13
2023-01-04T18:49:31.888Z,99855.31
2023-01-04T18:54:28.212Z,99837.94
2023-01-04T18:59:24.582Z,99858.69
2023-01-04T19:04:21.368Z,99860.09
2023-01-04T19:09:17.766Z,99828.81
2023-01-04T19:14:15.204Z,99835.53
2023-01-04T19:19:11.614Z,99833.72
2023-01-04T19:24:08.054Z,99851.09
2023-01-04T19:29:05.551Z,99849.16
2023-01-04T19:34:02.430Z,99841.00
2023-01-04T19:38:58.945Z,99833.47
2023-01-04T19:43:55.337Z,99840.44
2023-01-04T19:48:51.738Z,99841.28
2023-01-04T19:53:48.270Z,99854.19
2023-01-04T19:58:44.729Z,99870.03
2023-01-04T20:03:42.250Z,99876.91
2023-01-04T20:08:40.106Z,99877.75
2023-01-04T20:13:37.074Z,99873.84
2023-01-04T20:18:34.706Z,99887.84
2023-01-04T20:23:31.039Z,99889.63
2023-01-04T20:28:27.436Z,99897.56
2023-01-04T20:33:23.759Z,99903.97
2023-01-04T20:38:20.171Z,99907.53
2023-01-04T20:43:34.588Z,99917.94
2023-01-04T20:48:31.347Z,99916.00
2023-01-04T20:53:27.829Z,99917.81
2023-01-04T20:58:24.179Z,99922.97
2023-01-04T21:03:20.611Z,99918.78
2023-01-04T21:08:17.032Z,99926.56
2023-01-04T21:13:13.437Z,99928.16
2023-01-04T21:18:11.640Z,99933.84
2023-01-04T21:23:12.886Z,99924.66
2023-01-04T21:28:10.482Z,99931.94
2023-01-04T21:33:07.470Z,99920.50
2023-01-04T21:38:04.697Z,99931.03
2023-01-04T21:43:01.054Z,99929.25
2023-01-04T21:47:58.085Z,99925.59
2023-01-04T21:52:54.425Z,99936.22
2023-01-04T21:57:50.847Z,99938.69
2023-01-04T22:02:47.300Z,99936.47
2023-01-04T22:07:43.800Z,99923.06
2023-01-04T22:12:40.449Z,99932.19
2023-01-04T22:17:36.785Z,99931.59
2023-01-04T22:22:33.217Z,99924.59
2023-01-04T22:27:29.579Z,99929.72
2023-01-04T22:32:26.051Z,99938.63
2023-01-04T22:37:22.450Z,99944.50
2023-01-04T22:42:18.822Z,99947.81
2023-01-04T22:47:15.438Z,99949.03
2023-01-04T22:52:11.796Z,99946.34
2023-01-04T22:57:08.178Z,99943.44
2023-01-04T23:02:04.580Z,99932.66
2023-01-04T23:07:01.105Z,99930.72
2023-01-04T23:11:57.661Z,99949.75
2023-01-04T23:16:54.019Z,99954.78
2023-01-04T23:21:50.389Z,99954.84
2023-01-04T23:26:47.333Z,99947.25
2023-01-04T23:31:43.751Z,99957.16
2023-01-04T23:36:41.512Z,99952.34
2023-01-04T23:41:47.469Z,99959.75
2023-01-04T23:46:46.026Z,99972.81
2023-01-04T23:51:42.724Z,99961.44
2023-01-04T23:56:39.684Z,99979.56
